sensor_id;sensor_type;location;lat;lon;timestamp;pressure;altitude;pressure_sealevel;temperature;humidity
56052;BME280;41919;42.648;23.384;2023-07-31T00:01:53;94222.16;;;22.28;77.15
56052;BME280;41919;42.648;23.384;2023-07-31T00:04:18;94206.75;;;22.20;76.59
56052;BME280;41919;42.648;23.384;2023-07-31T00:06:44;94185.25;;;22.17;75.53
56052;BME280;41919;42.648;23.384;2023-07-31T00:09:09;94197.59;;;22.31;74.44
56052;BME280;41919;42.648;23.384;2023-07-31T00:11:34;94239.38;;;22.55;74.44
56052;BME280;41919;42.648;23.384;2023-07-31T00:14:00;94240.22;;;22.50;74.84
56052;BME280;41919;42.648;23.384;2023-07-31T00:16:25;94231.78;;;22.43;73.94
56052;BME280;41919;42.648;23.384;2023-07-31T00:18:51;94208.63;;;22.44;73.52
56052;BME280;41919;42.648;23.384;2023-07-31T00:21:16;94191.94;;;22.38;74.27
56052;BME280;41919;42.648;23.384;2023-07-31T00:23:41;94198.59;;;22.36;72.24
56052;BME280;41919;42.648;23.384;2023-07-31T00:26:07;94214.72;;;22.25;75.21
56052;BME280;41919;42.648;23.384;2023-07-31T00:28:32;94242.28;;;22.35;77.54
56052;BME280;41919;42.648;23.384;2023-07-31T00:30:57;94203.13;;;22.11;77.03
56052;BME280;41919;42.648;23.384;2023-07-31T00:33:23;94243.72;;;22.27;78.03
56052;BME280;41919;42.648;23.384;2023-07-31T00:35:48;94119.91;;;21.62;78.59
56052;BME280;41919;42.648;23.384;2023-07-31T00:38:14;94231.50;;;22.45;77.52
56052;BME280;41919;42.648;23.384;2023-07-31T00:40:39;94184.28;;;22.31;76.56
56052;BME280;41919;42.648;23.384;2023-07-31T00:43:05;94168.94;;;22.23;76.20
56052;BME280;41919;42.648;23.384;2023-07-31T00:45:30;94158.44;;;22.13;76.80
56052;BME280;41919;42.648;23.384;2023-07-31T00:47:56;94120.53;;;21.78;78.32
56052;BME280;41919;42.648;23.384;2023-07-31T00:50:24;94164.09;;;22.06;78.12
56052;BME280;41919;42.648;23.384;2023-07-31T00:52:50;94214.09;;;22.52;77.40
56052;BME280;41919;42.648;23.384;2023-07-31T00:55:16;94133.84;;;21.97;77.86
56052;BME280;41919;42.648;23.384;2023-07-31T00:57:42;94168.47;;;22.16;77.80
56052;BME280;41919;42.648;23.384;2023-07-31T01:00:08;94175.75;;;22.35;77.35
56052;BME280;41919;42.648;23.384;2023-07-31T01:02:34;94225.19;;;22.60;77.71
56052;BME280;41919;42.648;23.384;2023-07-31T01:05:01;94168.41;;;22.26;77.12
56052;BME280;41919;42.648;23.384;2023-07-31T01:07:34;94204.16;;;22.58;77.10
56052;BME280;41919;42.648;23.384;2023-07-31T01:10:10;94151.69;;;22.21;77.87
56052;BME280;41919;42.648;23.384;2023-07-31T01:12:38;94198.13;;;22.52;77.94
56052;BME280;41919;42.648;23.384;2023-07-31T01:15:04;94202.44;;;22.48;77.99
56052;BME280;41919;42.648;23.384;2023-07-31T01:17:30;94130.47;;;21.91;78.38
56052;BME280;41919;42.648;23.384;2023-07-31T01:20:02;94145.31;;;21.98;78.93
56052;BME280;41919;42.648;23.384;2023-07-31T01:27:59;94013.84;;;21.12;79.89
56052;BME280;41919;42.648;23.384;2023-07-31T01:30:34;94192.34;;;22.26;79.71
56052;BME280;41919;42.648;23.384;2023-07-31T01:33:03;94140.75;;;21.79;80.42
56052;BME280;41919;42.648;23.384;2023-07-31T01:35:36;94182.75;;;22.01;81.22
56052;BME280;41919;42.648;23.384;2023-07-31T01:38:02;94183.63;;;21.97;81.87
56052;BME280;41919;42.648;23.384;2023-07-31T01:40:27;94152.91;;;21.85;81.65
56052;BME280;41919;42.648;23.384;2023-07-31T01:42:53;94182.56;;;21.98;81.96
56052;BME280;41919;42.648;23.384;2023-07-31T01:45:18;94177.41;;;21.82;82.73
56052;BME280;41919;42.648;23.384;2023-07-31T01:47:43;94125.41;;;21.47;83.19
56052;BME280;41919;42.648;23.384;2023-07-31T01:50:09;94181.66;;;21.83;83.78
56052;BME280;41919;42.648;23.384;2023-07-31T01:52:34;94139.44;;;21.52;83.51
56052;BME280;41919;42.648;23.384;2023-07-31T01:55:00;94141.59;;;21.50;83.96
56052;BME280;41919;42.648;23.384;2023-07-31T01:57:25;94166.38;;;21.70;84.46
56052;BME280;41919;42.648;23.384;2023-07-31T01:59:51;94145.25;;;21.54;83.90
56052;BME280;41919;42.648;23.384;2023-07-31T02:02:18;94171.13;;;21.73;84.37
56052;BME280;41919;42.648;23.384;2023-07-31T02:04:44;94175.09;;;21.76;84.61
56052;BME280;41919;42.648;23.384;2023-07-31T02:07:09;94134.63;;;21.25;86.14
56052;BME280;41919;42.648;23.384;2023-07-31T02:09:34;94146.50;;;21.33;86.17
56052;BME280;41919;42.648;23.384;2023-07-31T02:12:00;94181.41;;;21.56;86.72
56052;BME280;41919;42.648;23.384;2023-07-31T02:14:25;94135.03;;;21.38;85.92
56052;BME280;41919;42.648;23.384;2023-07-31T02:16:50;94197.50;;;21.69;86.25
56052;BME280;41919;42.648;23.384;2023-07-31T02:19:16;94195.63;;;21.70;86.24
56052;BME280;41919;42.648;23.384;2023-07-31T02:21:41;94150.69;;;21.39;86.52
56052;BME280;41919;42.648;23.384;2023-07-31T02:24:06;94209.16;;;21.73;86.31
56052;BME280;41919;42.648;23.384;2023-07-31T02:26:32;94214.28;;;21.65;87.04
56052;BME280;41919;42.648;23.384;2023-07-31T02:28:57;94169.06;;;21.35;87.40
56052;BME280;41919;42.648;23.384;2023-07-31T02:31:22;94215.59;;;21.67;87.22
56052;BME280;41919;42.648;23.384;2023-07-31T02:33:48;94208.91;;;21.70;87.11
56052;BME280;41919;42.648;23.384;2023-07-31T02:36:13;94205.41;;;21.74;86.94
56052;BME280;41919;42.648;23.384;2023-07-31T02:38:40;94169.72;;;21.51;86.62
56052;BME280;41919;42.648;23.384;2023-07-31T02:41:05;94143.75;;;21.43;86.54
56052;BME280;41919;42.648;23.384;2023-07-31T02:43:30;94192.69;;;21.71;86.56
56052;BME280;41919;42.648;23.384;2023-07-31T02:45:56;94189.28;;;21.66;86.66
56052;BME280;41919;42.648;23.384;2023-07-31T02:48:21;94137.75;;;21.32;87.07
56052;BME280;41919;42.648;23.384;2023-07-31T02:50:47;94127.94;;;21.28;86.48
56052;BME280;41919;42.648;23.384;2023-07-31T02:53:13;94197.16;;;21.76;85.91
56052;BME280;41919;42.648;23.384;2023-07-31T02:55:39;94156.88;;;21.64;85.43
56052;BME280;41919;42.648;23.384;2023-07-31T02:58:04;94211.91;;;21.87;85.78
56052;BME280;41919;42.648;23.384;2023-07-31T03:00:29;94216.34;;;21.97;85.25
56052;BME280;41919;42.648;23.384;2023-07-31T03:02:55;94216.50;;;22.06;84.90
56052;BME280;41919;42.648;23.384;2023-07-31T03:05:20;94185.81;;;21.89;84.29
56052;BME280;41919;42.648;23.384;2023-07-31T03:07:46;94222.91;;;22.05;84.30
56052;BME280;41919;42.648;23.384;2023-07-31T03:10:11;94162.41;;;21.67;84.06
56052;BME280;41919;42.648;23.384;2023-07-31T03:12:37;94219.28;;;21.96;84.29
56052;BME280;41919;42.648;23.384;2023-07-31T03:15:02;94213.16;;;21.95;84.44
56052;BME280;41919;42.648;23.384;2023-07-31T03:17:28;94210.34;;;21.86;84.75
56052;BME280;41919;42.648;23.384;2023-07-31T03:19:53;94224.16;;;21.88;84.94
56052;BME280;41919;42.648;23.384;2023-07-31T03:22:18;94154.97;;;21.40;85.51
56052;BME280;41919;42.648;23.384;2023-07-31T03:24:44;94181.41;;;21.56;85.49
56052;BME280;41919;42.648;23.384;2023-07-31T03:27:09;94190.44;;;21.54;85.76
56052;BME280;41919;42.648;23.384;2023-07-31T03:29:35;94228.28;;;21.76;86.11
56052;BME280;41919;42.648;23.384;2023-07-31T03:32:00;94224.31;;;21.73;86.32
56052;BME280;41919;42.648;23.384;2023-07-31T03:34:26;94235.97;;;21.77;86.19
56052;BME280;41919;42.648;23.384;2023-07-31T03:36:51;94233.47;;;21.86;86.05
56052;BME280;41919;42.648;23.384;2023-07-31T03:39:16;94227.66;;;21.84;85.94
56052;BME280;41919;42.648;23.384;2023-07-31T03:41:42;94194.88;;;21.64;85.84
56052;BME280;41919;42.648;23.384;2023-07-31T03:44:07;94237.22;;;21.85;85.83
56052;BME280;41919;42.648;23.384;2023-07-31T03:46:33;94193.13;;;21.54;85.92
56052;BME280;41919;42.648;23.384;2023-07-31T03:48:59;94233.47;;;21.86;85.54
56052;BME280;41919;42.648;23.384;2023-07-31T03:51:24;94237.84;;;21.77;85.76
56052;BME280;41919;42.648;23.384;2023-07-31T03:53:49;94243.34;;;21.85;85.47
56052;BME280;41919;42.648;23.384;2023-07-31T03:56:15;94084.72;;;20.93;84.89
56052;BME280;41919;42.648;23.384;2023-07-31T03:58:40;94213.78;;;21.87;83.92
56052;BME280;41919;42.648;23.384;2023-07-31T04:01:06;94199.28;;;21.74;83.63
56052;BME280;41919;42.648;23.384;2023-07-31T04:03:31;94199.41;;;21.64;83.77
56052;BME280;41919;42.648;23.384;2023-07-31T04:05:56;94192.25;;;21.59;83.53
56052;BME280;41919;42.648;23.384;2023-07-31T04:08:22;94203.25;;;21.52;84.41
56052;BME280;41919;42.648;23.384;2023-07-31T04:10:48;94237.66;;;21.68;84.53
56052;BME280;41919;42.648;23.384;2023-07-31T04:13:14;94210.19;;;21.43;85.43
56052;BME280;41919;42.648;23.384;2023-07-31T04:15:39;94220.56;;;21.50;84.80
56052;BME280;41919;42.648;23.384;2023-07-31T04:18:05;94256.41;;;21.82;84.80
56052;BME280;41919;42.648;23.384;2023-07-31T04:20:30;94250.34;;;21.76;84.34
56052;BME280;41919;42.648;23.384;2023-07-31T04:22:56;94211.25;;;21.47;84.33
56052;BME280;41919;42.648;23.384;2023-07-31T04:25:21;94215.69;;;21.57;83.78
56052;BME280;41919;42.648;23.384;2023-07-31T04:27:47;94256.13;;;21.83;83.90
56052;BME280;41919;42.648;23.384;2023-07-31T04:30:12;94224.88;;;21.70;82.81
56052;BME280;41919;42.648;23.384;2023-07-31T04:32:38;94275.53;;;22.13;82.34
56052;BME280;41919;42.648;23.384;2023-07-31T04:35:03;94233.47;;;21.86;82.55
56052;BME280;41919;42.648;23.384;2023-07-31T04:37:29;94275.44;;;21.94;83.40
56052;BME280;41919;42.648;23.384;2023-07-31T04:39:54;94280.84;;;22.13;82.21
56052;BME280;41919;42.648;23.384;2023-07-31T04:42:19;94274.06;;;22.26;81.64
56052;BME280;41919;42.648;23.384;2023-07-31T04:44:45;94274.28;;;22.29;81.30
56052;BME280;41919;42.648;23.384;2023-07-31T04:47:10;94221.88;;;22.01;81.35
56052;BME280;41919;42.648;23.384;2023-07-31T04:49:35;94256.75;;;22.28;80.93
56052;BME280;41919;42.648;23.384;2023-07-31T04:52:01;94265.84;;;22.46;79.46
56052;BME280;41919;42.648;23.384;2023-07-31T04:54:27;94258.06;;;22.50;78.75
56052;BME280;41919;42.648;23.384;2023-07-31T04:56:52;94231.00;;;22.43;77.61
56052;BME280;41919;42.648;23.384;2023-07-31T04:59:18;94218.56;;;22.38;77.37
56052;BME280;41919;42.648;23.384;2023-07-31T05:01:43;94242.97;;;22.64;77.44
56052;BME280;41919;42.648;23.384;2023-07-31T05:04:12;94252.84;;;22.83;76.27
56052;BME280;41919;42.648;23.384;2023-07-31T05:06:38;94269.63;;;23.21;75.31
56052;BME280;41919;42.648;23.384;2023-07-31T05:09:03;94256.66;;;23.34;74.09
56052;BME280;41919;42.648;23.384;2023-07-31T05:11:29;94257.03;;;23.60;72.31
56052;BME280;41919;42.648;23.384;2023-07-31T05:13:54;94249.72;;;23.65;72.00
56052;BME280;41919;42.648;23.384;2023-07-31T05:16:19;94262.34;;;23.93;70.60
56052;BME280;41919;42.648;23.384;2023-07-31T05:18:45;94229.53;;;23.78;69.82
56052;BME280;41919;42.648;23.384;2023-07-31T05:21:10;94213.13;;;23.85;69.10
56052;BME280;41919;42.648;23.384;2023-07-31T05:23:36;94225.53;;;24.09;68.19
56052;BME280;41919;42.648;23.384;2023-07-31T05:26:05;94257.75;;;24.40;68.28
56052;BME280;41919;42.648;23.384;2023-07-31T05:28:31;94249.34;;;24.60;66.99
56052;BME280;41919;42.648;23.384;2023-07-31T05:31:00;94199.00;;;24.26;66.55
56052;BME280;41919;42.648;23.384;2023-07-31T05:33:26;94259.72;;;24.76;64.66
56052;BME280;41919;42.648;23.384;2023-07-31T05:35:51;94210.09;;;24.83;63.40
56052;BME280;41919;42.648;23.384;2023-07-31T05:38:16;94207.06;;;25.35;61.37
56052;BME280;41919;42.648;23.384;2023-07-31T05:40:42;94225.22;;;25.78;60.39
56052;BME280;41919;42.648;23.384;2023-07-31T05:43:08;94261.25;;;26.44;58.32
56052;BME280;41919;42.648;23.384;2023-07-31T05:45:34;94203.59;;;26.55;56.91
56052;BME280;41919;42.648;23.384;2023-07-31T05:47:59;94256.03;;;27.13;54.52
56052;BME280;41919;42.648;23.384;2023-07-31T05:50:25;94219.75;;;27.42;52.69
56052;BME280;41919;42.648;23.384;2023-07-31T05:52:50;94226.44;;;27.92;50.90
56052;BME280;41919;42.648;23.384;2023-07-31T05:55:16;94243.78;;;28.42;48.69
56052;BME280;41919;42.648;23.384;2023-07-31T05:57:42;94228.28;;;28.77;47.91
56052;BME280;41919;42.648;23.384;2023-07-31T06:00:08;94251.31;;;29.29;46.07
56052;BME280;41919;42.648;23.384;2023-07-31T06:02:33;94259.78;;;29.40;44.46
56052;BME280;41919;42.648;23.384;2023-07-31T06:05:02;94215.31;;;29.21;44.46
56052;BME280;41919;42.648;23.384;2023-07-31T06:07:29;94257.31;;;29.35;44.41
56052;BME280;41919;42.648;23.384;2023-07-31T06:09:54;94185.09;;;28.52;45.07
56052;BME280;41919;42.648;23.384;2023-07-31T06:12:20;94232.00;;;28.64;45.94
56052;BME280;41919;42.648;23.384;2023-07-31T06:14:45;94247.72;;;28.44;46.12
56052;BME280;41919;42.648;23.384;2023-07-31T06:17:11;94261.81;;;27.94;47.24
56052;BME280;41919;42.648;23.384;2023-07-31T06:19:36;94266.66;;;28.09;46.81
56052;BME280;41919;42.648;23.384;2023-07-31T06:22:02;94251.50;;;28.43;45.75
56052;BME280;41919;42.648;23.384;2023-07-31T06:24:28;94213.78;;;28.69;44.58
56052;BME280;41919;42.648;23.384;2023-07-31T06:26:54;94207.81;;;28.85;42.81
56052;BME280;41919;42.648;23.384;2023-07-31T06:29:19;94246.78;;;29.42;40.59
56052;BME280;41919;42.648;23.384;2023-07-31T06:31:44;94264.16;;;29.65;40.27
56052;BME280;41919;42.648;23.384;2023-07-31T06:34:10;94209.25;;;29.58;39.96
56052;BME280;41919;42.648;23.384;2023-07-31T06:36:35;94246.34;;;30.19;38.86
56052;BME280;41919;42.648;23.384;2023-07-31T06:39:01;94241.19;;;30.51;38.12
56052;BME280;41919;42.648;23.384;2023-07-31T06:41:26;94259.13;;;31.08;37.45
56052;BME280;41919;42.648;23.384;2023-07-31T06:43:51;94258.84;;;31.25;36.32
56052;BME280;41919;42.648;23.384;2023-07-31T06:46:17;94258.16;;;30.51;37.38
56052;BME280;41919;42.648;23.384;2023-07-31T06:48:42;94202.31;;;30.15;38.22
56052;BME280;41919;42.648;23.384;2023-07-31T06:51:08;94248.16;;;30.76;38.02
56052;BME280;41919;42.648;23.384;2023-07-31T06:53:33;94253.25;;;31.18;36.79
56052;BME280;41919;42.648;23.384;2023-07-31T06:55:58;94215.34;;;31.43;36.34
56052;BME280;41919;42.648;23.384;2023-07-31T06:58:24;94248.50;;;31.84;35.93
56052;BME280;41919;42.648;23.384;2023-07-31T07:00:49;94214.13;;;32.13;35.11
56052;BME280;41919;42.648;23.384;2023-07-31T07:03:18;94220.22;;;32.41;34.15
56052;BME280;41919;42.648;23.384;2023-07-31T07:05:43;94213.00;;;31.70;35.35
56052;BME280;41919;42.648;23.384;2023-07-31T07:08:09;94213.75;;;32.30;34.15
56052;BME280;41919;42.648;23.384;2023-07-31T07:10:34;94254.09;;;32.87;33.52
56052;BME280;41919;42.648;23.384;2023-07-31T07:12:59;94252.22;;;33.07;33.00
56052;BME280;41919;42.648;23.384;2023-07-31T07:15:25;94262.31;;;33.26;33.05
56052;BME280;41919;42.648;23.384;2023-07-31T07:17:50;94258.03;;;33.25;32.99
56052;BME280;41919;42.648;23.384;2023-07-31T07:20:15;94253.81;;;33.27;32.14
56052;BME280;41919;42.648;23.384;2023-07-31T07:22:41;94255.94;;;32.82;32.88
56052;BME280;41919;42.648;23.384;2023-07-31T07:25:08;94262.94;;;32.84;33.22
56052;BME280;41919;42.648;23.384;2023-07-31T07:27:34;94264.53;;;33.39;32.37
56052;BME280;41919;42.648;23.384;2023-07-31T07:29:59;94261.81;;;33.78;31.42
56052;BME280;41919;42.648;23.384;2023-07-31T07:32:25;94257.66;;;33.85;30.89
56052;BME280;41919;42.648;23.384;2023-07-31T07:34:51;94245.19;;;33.60;31.19
56052;BME280;41919;42.648;23.384;2023-07-31T07:37:16;94244.91;;;33.85;30.76
56052;BME280;41919;42.648;23.384;2023-07-31T07:39:41;94216.81;;;33.35;31.09
56052;BME280;41919;42.648;23.384;2023-07-31T07:42:07;94278.78;;;33.01;32.13
56052;BME280;41919;42.648;23.384;2023-07-31T07:44:32;94265.72;;;32.55;32.95
56052;BME280;41919;42.648;23.384;2023-07-31T07:46:58;94264.06;;;32.03;33.91
56052;BME280;41919;42.648;23.384;2023-07-31T07:49:23;94274.03;;;31.30;34.77
56052;BME280;41919;42.648;23.384;2023-07-31T07:51:49;94284.75;;;31.14;35.11
56052;BME280;41919;42.648;23.384;2023-07-31T07:54:14;94277.88;;;31.17;35.45
56052;BME280;41919;42.648;23.384;2023-07-31T07:56:41;94264.06;;;31.18;34.78
56052;BME280;41919;42.648;23.384;2023-07-31T07:59:07;94278.00;;;31.20;35.21
56052;BME280;41919;42.648;23.384;2023-07-31T08:01:32;94258.94;;;31.29;35.20
56052;BME280;41919;42.648;23.384;2023-07-31T08:03:58;94278.03;;;31.77;34.82
56052;BME280;41919;42.648;23.384;2023-07-31T08:06:23;94279.97;;;31.92;34.41
56052;BME280;41919;42.648;23.384;2023-07-31T08:08:49;94284.50;;;31.88;34.17
56052;BME280;41919;42.648;23.384;2023-07-31T08:11:14;94271.94;;;31.52;34.78
56052;BME280;41919;42.648;23.384;2023-07-31T08:13:40;94278.16;;;31.96;34.18
56052;BME280;41919;42.648;23.384;2023-07-31T08:16:05;94238.38;;;31.81;33.46
56052;BME280;41919;42.648;23.384;2023-07-31T08:18:31;94251.44;;;32.23;32.00
56052;BME280;41919;42.648;23.384;2023-07-31T08:20:57;94264.50;;;32.37;33.04
56052;BME280;41919;42.648;23.384;2023-07-31T08:23:23;94238.09;;;32.30;33.21
56052;BME280;41919;42.648;23.384;2023-07-31T08:25:48;94240.81;;;32.30;33.11
56052;BME280;41919;42.648;23.384;2023-07-31T08:28:16;94271.69;;;32.45;33.21
56052;BME280;41919;42.648;23.384;2023-07-31T08:30:41;94275.25;;;32.65;32.57
56052;BME280;41919;42.648;23.384;2023-07-31T08:33:07;94271.94;;;33.07;32.04
56052;BME280;41919;42.648;23.384;2023-07-31T08:35:32;94271.13;;;32.71;32.32
56052;BME280;41919;42.648;23.384;2023-07-31T08:37:58;94244.72;;;32.49;31.89
56052;BME280;41919;42.648;23.384;2023-07-31T08:40:26;94243.00;;;32.56;31.87
56052;BME280;41919;42.648;23.384;2023-07-31T08:42:54;94175.03;;;31.94;31.88
56052;BME280;41919;42.648;23.384;2023-07-31T08:45:22;94284.94;;;32.66;31.80
56052;BME280;41919;42.648;23.384;2023-07-31T08:47:51;94229.47;;;32.24;32.16
56052;BME280;41919;42.648;23.384;2023-07-31T08:50:18;94279.97;;;32.68;31.78
56052;BME280;41919;42.648;23.384;2023-07-31T08:52:46;94273.94;;;32.11;31.73
56052;BME280;41919;42.648;23.384;2023-07-31T08:55:11;94233.59;;;31.90;31.77
56052;BME280;41919;42.648;23.384;2023-07-31T08:57:38;94269.16;;;31.92;32.01
56052;BME280;41919;42.648;23.384;2023-07-31T09:00:05;94276.19;;;32.25;31.58
56052;BME280;41919;42.648;23.384;2023-07-31T09:02:48;94279.16;;;32.52;31.84
56052;BME280;41919;42.648;23.384;2023-07-31T09:05:16;94266.69;;;32.15;32.26
56052;BME280;41919;42.648;23.384;2023-07-31T09:07:44;94236.31;;;31.90;31.64
56052;BME280;41919;42.648;23.384;2023-07-31T09:10:12;94207.53;;;31.38;32.55
56052;BME280;41919;42.648;23.384;2023-07-31T09:12:37;94267.66;;;32.23;32.47
56052;BME280;41919;42.648;23.384;2023-07-31T09:15:04;94281.38;;;31.86;33.59
56052;BME280;41919;42.648;23.384;2023-07-31T09:17:34;94276.72;;;32.15;32.02
56052;BME280;41919;42.648;23.384;2023-07-31T09:20:13;94237.16;;;32.07;32.41
56052;BME280;41919;42.648;23.384;2023-07-31T09:22:39;94257.88;;;32.34;31.76
56052;BME280;41919;42.648;23.384;2023-07-31T09:25:22;94203.72;;;32.31;31.44
56052;BME280;41919;42.648;23.384;2023-07-31T09:27:57;94268.78;;;32.54;31.96
56052;BME280;41919;42.648;23.384;2023-07-31T09:30:23;94208.25;;;32.42;30.81
56052;BME280;41919;42.648;23.384;2023-07-31T09:32:49;94256.19;;;31.98;30.93
56052;BME280;41919;42.648;23.384;2023-07-31T09:37:40;94257.19;;;32.37;31.27
56052;BME280;41919;42.648;23.384;2023-07-31T09:40:06;94223.19;;;32.04;31.47
56052;BME280;41919;42.648;23.384;2023-07-31T09:42:34;94231.97;;;32.17;31.08
56052;BME280;41919;42.648;23.384;2023-07-31T09:45:08;94256.75;;;32.67;30.51
56052;BME280;41919;42.648;23.384;2023-07-31T09:47:34;94216.81;;;32.13;31.43
56052;BME280;41919;42.648;23.384;2023-07-31T09:50:00;94207.38;;;31.91;31.74
56052;BME280;41919;42.648;23.384;2023-07-31T09:52:26;94194.63;;;31.75;32.08
56052;BME280;41919;42.648;23.384;2023-07-31T09:54:52;94248.03;;;32.10;31.76
56052;BME280;41919;42.648;23.384;2023-07-31T09:57:19;94241.75;;;32.06;31.30
56052;BME280;41919;42.648;23.384;2023-07-31T09:59:47;94233.25;;;31.76;32.72
56052;BME280;41919;42.648;23.384;2023-07-31T10:02:15;94245.53;;;31.04;33.29
56052;BME280;41919;42.648;23.384;2023-07-31T10:04:45;94243.22;;;30.41;34.63
56052;BME280;41919;42.648;23.384;2023-07-31T10:07:12;94208.28;;;30.57;34.25
56052;BME280;41919;42.648;23.384;2023-07-31T10:09:39;94195.97;;;30.84;33.93
56052;BME280;41919;42.648;23.384;2023-07-31T10:12:07;94243.41;;;30.98;33.78
56052;BME280;41919;42.648;23.384;2023-07-31T10:14:35;94248.59;;;30.41;34.90
56052;BME280;41919;42.648;23.384;2023-07-31T10:17:02;94181.44;;;30.12;34.87
56052;BME280;41919;42.648;23.384;2023-07-31T10:19:29;94193.53;;;30.18;34.65
56052;BME280;41919;42.648;23.384;2023-07-31T10:21:55;94233.28;;;30.82;34.59
56052;BME280;41919;42.648;23.384;2023-07-31T10:24:23;94183.09;;;30.65;33.70
56052;BME280;41919;42.648;23.384;2023-07-31T10:26:49;94187.13;;;30.72;33.25
56052;BME280;41919;42.648;23.384;2023-07-31T10:29:17;94229.72;;;30.78;34.03
56052;BME280;41919;42.648;23.384;2023-07-31T10:31:44;94233.06;;;30.87;33.84
56052;BME280;41919;42.648;23.384;2023-07-31T10:34:10;94241.19;;;30.38;34.38
56052;BME280;41919;42.648;23.384;2023-07-31T10:36:36;94197.56;;;29.99;34.30
56052;BME280;41919;42.648;23.384;2023-07-31T10:39:03;94224.97;;;30.14;35.30
56052;BME280;41919;42.648;23.384;2023-07-31T10:41:30;94233.06;;;30.26;34.06
56052;BME280;41919;42.648;23.384;2023-07-31T10:44:00;94223.00;;;30.35;33.45
56052;BME280;41919;42.648;23.384;2023-07-31T10:46:27;94168.84;;;29.91;33.90
56052;BME280;41919;42.648;23.384;2023-07-31T10:49:02;94223.66;;;30.57;33.84
56052;BME280;41919;42.648;23.384;2023-07-31T10:51:35;94221.19;;;30.64;32.52
56052;BME280;41919;42.648;23.384;2023-07-31T10:54:11;94174.03;;;30.45;32.54
56052;BME280;41919;42.648;23.384;2023-07-31T10:56:37;94210.16;;;30.57;33.08
56052;BME280;41919;42.648;23.384;2023-07-31T10:59:06;94172.22;;;30.25;33.06
56052;BME280;41919;42.648;23.384;2023-07-31T11:01:54;94206.25;;;30.66;32.97
56052;BME280;41919;42.648;23.384;2023-07-31T11:04:24;94152.66;;;30.28;33.06
56052;BME280;41919;42.648;23.384;2023-07-31T11:07:01;94204.03;;;30.44;32.80
56052;BME280;41919;42.648;23.384;2023-07-31T11:09:29;94183.91;;;30.41;33.54
56052;BME280;41919;42.648;23.384;2023-07-31T11:11:55;94184.91;;;30.12;33.53
56052;BME280;41919;42.648;23.384;2023-07-31T11:14:21;94192.22;;;30.36;33.85
56052;BME280;41919;42.648;23.384;2023-07-31T11:16:50;94196.34;;;30.21;33.92
56052;BME280;41919;42.648;23.384;2023-07-31T11:19:24;94143.81;;;29.90;33.48
56052;BME280;41919;42.648;23.384;2023-07-31T11:21:50;94203.19;;;30.06;33.89
56052;BME280;41919;42.648;23.384;2023-07-31T11:24:16;94162.72;;;29.57;33.76
56052;BME280;41919;42.648;23.384;2023-07-31T11:26:51;94211.03;;;29.75;34.21
56052;BME280;41919;42.648;23.384;2023-07-31T11:29:18;94064.72;;;28.79;34.16
56052;BME280;41919;42.648;23.384;2023-07-31T11:31:44;94176.13;;;29.78;33.58
56052;BME280;41919;42.648;23.384;2023-07-31T11:34:10;94200.38;;;29.78;33.41
56052;BME280;41919;42.648;23.384;2023-07-31T11:36:35;94150.31;;;29.31;33.14
56052;BME280;41919;42.648;23.384;2023-07-31T11:39:05;94192.28;;;29.45;34.14
56052;BME280;41919;42.648;23.384;2023-07-31T11:41:31;94187.03;;;29.48;34.13
56052;BME280;41919;42.648;23.384;2023-07-31T11:43:59;94135.91;;;28.94;34.15
56052;BME280;41919;42.648;23.384;2023-07-31T11:46:25;94166.88;;;29.21;34.80
56052;BME280;41919;42.648;23.384;2023-07-31T11:48:51;94196.31;;;29.39;34.65
56052;BME280;41919;42.648;23.384;2023-07-31T11:51:16;94178.38;;;29.43;34.88
56052;BME280;41919;42.648;23.384;2023-07-31T11:53:51;94190.47;;;29.37;35.29
56052;BME280;41919;42.648;23.384;2023-07-31T11:56:18;94140.50;;;29.15;34.28
56052;BME280;41919;42.648;23.384;2023-07-31T11:58:46;94183.31;;;29.53;34.85
56052;BME280;41919;42.648;23.384;2023-07-31T12:01:14;94166.72;;;29.51;34.49
56052;BME280;41919;42.648;23.384;2023-07-31T12:03:40;94194.88;;;29.75;34.69
56052;BME280;41919;42.648;23.384;2023-07-31T12:06:07;94138.94;;;29.59;33.54
56052;BME280;41919;42.648;23.384;2023-07-31T12:08:33;94139.44;;;29.98;33.72
56052;BME280;41919;42.648;23.384;2023-07-31T12:11:03;94176.81;;;30.00;33.34
56052;BME280;41919;42.648;23.384;2023-07-31T12:13:31;94156.97;;;30.17;33.00
56052;BME280;41919;42.648;23.384;2023-07-31T12:15:57;94119.44;;;29.99;32.38
56052;BME280;41919;42.648;23.384;2023-07-31T12:18:25;94150.66;;;30.25;32.24
56052;BME280;41919;42.648;23.384;2023-07-31T12:20:55;94111.81;;;30.14;32.00
56052;BME280;41919;42.648;23.384;2023-07-31T12:23:23;94141.88;;;30.53;32.42
56052;BME280;41919;42.648;23.384;2023-07-31T12:26:16;94112.59;;;30.26;32.37
56052;BME280;41919;42.648;23.384;2023-07-31T12:28:45;94177.59;;;30.13;32.83
56052;BME280;41919;42.648;23.384;2023-07-31T12:31:15;94168.63;;;30.21;33.21
56052;BME280;41919;42.648;23.384;2023-07-31T12:33:45;94132.00;;;30.20;32.77
56052;BME280;41919;42.648;23.384;2023-07-31T12:36:16;94105.88;;;29.96;33.35
56052;BME280;41919;42.648;23.384;2023-07-31T12:38:42;94105.75;;;30.04;33.35
56052;BME280;41919;42.648;23.384;2023-07-31T12:41:07;94101.53;;;29.45;33.94
56052;BME280;41919;42.648;23.384;2023-07-31T12:43:37;94119.66;;;29.57;34.30
56052;BME280;41919;42.648;23.384;2023-07-31T12:46:03;94161.09;;;30.02;34.39
56052;BME280;41919;42.648;23.384;2023-07-31T12:48:28;94123.03;;;29.91;34.21
56052;BME280;41919;42.648;23.384;2023-07-31T12:50:54;94157.44;;;29.61;33.88
56052;BME280;41919;42.648;23.384;2023-07-31T12:53:19;94102.53;;;29.28;34.04
56052;BME280;41919;42.648;23.384;2023-07-31T12:55:44;94105.56;;;29.27;34.25